Aérodrome :
LOGIN :

S'inscrire | Disclaimer

   EN    FR    IT 

 










Légende :    VFR   VFR Marginal   IFR   IFR Intensif   IFR Très Intensif
Visi : 
Plafond : 
>= 8 km
>= 3000ft
5 à 8 km
1000 à 3000 ft
1500m à 5 km
500 à 1000 ft
800 à 1500m
200 à 500 ft
< 800m
< 200 ft
Symboles :   Orages  Brouillard  Fortes neiges  Fortes précipitations  Vent > 20 kt
SIGMETs :   Divers  Orages  Givrage  Turbulence  Onde Orograph.  Cendres Volcan.






- Altitude de l'aérodrome : 24 ft
- Code IATA : SGD


EKSB - Sonderborg

DERNIER METAR :
  • 130820Z AUTO 19007KT 150V230 9999 OVC007/// 16/14 Q1006

METARs EXPIRÉS :
  • 130750Z AUTO 18009KT 130V210 9999 OVC007/// 15/14 Q1006
  • 130720Z AUTO 18008KT 140V210 9999 OVC006/// 16/15 Q1006
  • 130650Z AUTO 16008KT 130V190 9999 OVC006/// 16/15 Q1006
  • 130620Z AUTO 17008KT 130V210 9999 OVC006/// 15/14 Q1006
  • 130550Z AUTO 16009KT 140V200 9999 OVC006/// 15/14 Q1006
  • 130520Z AUTO 16007KT 130V190 9999 OVC006/// 15/14 Q1005
  • 130450Z AUTO 16008KT 130V200 9999 OVC007/// 15/14 Q1005
  • 130420Z AUTO 15009KT 120V180 9999 OVC009/// 15/14 Q1005
  • 130350Z AUTO 16009KT 140V200 9999 BKN009/// 15/14 Q1005

Prévision TAF périmée.



MET'MAP, la Météo Aéronautique d'un coup d'oeil ! - Copyright ORBIFLY Décembre 2007 - Disclaimer

ORBIFLY MET'MAP TEAM :

Programmation & Développement : Alexandra Zaïnal
Sur une idée originale de : Baudouin d'Aumeries
Soutien technique & logistique : Manuel Goepfert
Assistance : Marc-Olivier Méhu




SOURCES & CREDITS :

   NOAA